createdAt,value
2018-10-04T00:00:42.101Z,5.53
2018-10-04T00:03:12.199Z,4.60
2018-10-04T00:05:42.317Z,5.63
2018-10-04T00:08:12.482Z,4.87
2018-10-04T00:10:42.752Z,5.13
2018-10-04T00:13:12.858Z,7.53
2018-10-04T00:15:42.977Z,5.60
2018-10-04T00:18:14.041Z,5.80
2018-10-04T00:20:44.509Z,5.30
2018-10-04T00:23:14.663Z,4.60
2018-10-04T00:25:44.784Z,6.73
2018-10-04T00:28:14.900Z,12.07
2018-10-04T00:30:45.037Z,10.53
2018-10-04T00:33:15.225Z,6.33
2018-10-04T00:35:45.340Z,4.93
2018-10-04T00:38:15.465Z,3.70
2018-10-04T00:40:45.572Z,4.43
2018-10-04T00:43:15.748Z,3.77
2018-10-04T00:45:45.871Z,3.23
2018-10-04T00:48:15.993Z,4.80
2018-10-04T00:50:46.092Z,5.13
2018-10-04T00:53:16.240Z,5.40
2018-10-04T00:55:46.393Z,5.70
2018-10-04T00:58:16.521Z,3.90
2018-10-04T01:00:46.701Z,3.80
2018-10-04T01:03:16.824Z,3.93
2018-10-04T01:05:46.965Z,5.13
2018-10-04T01:08:17.100Z,3.33
2018-10-04T01:10:47.181Z,3.87
2018-10-04T01:13:17.305Z,4.03
2018-10-04T01:15:47.439Z,4.57
2018-10-04T01:18:34.548Z,3.83
2018-10-04T01:21:04.685Z,4.43
2018-10-04T01:23:34.898Z,4.10
2018-10-04T01:26:05.025Z,4.40
2018-10-04T01:28:35.165Z,3.00
2018-10-04T01:31:05.305Z,3.37
2018-10-04T01:33:35.426Z,3.10
2018-10-04T01:36:05.572Z,4.20
2018-10-04T01:38:35.693Z,3.77
2018-10-04T01:41:05.810Z,4.53
2018-10-04T01:43:35.917Z,3.23
2018-10-04T01:46:06.373Z,2.63
2018-10-04T01:48:36.493Z,3.63
2018-10-04T01:51:06.624Z,2.60
2018-10-04T01:53:36.864Z,3.90
2018-10-04T01:56:07.061Z,2.83
2018-10-04T01:58:37.181Z,31.97
2018-10-04T02:01:07.361Z,39.50
2018-10-04T02:03:37.488Z,8.07
2018-10-04T02:06:07.631Z,5.17
2018-10-04T02:08:37.722Z,2.90
2018-10-04T02:11:07.977Z,2.30
2018-10-04T02:13:38.069Z,3.27
2018-10-04T02:16:08.207Z,2.60
2018-10-04T02:18:38.357Z,2.80
2018-10-04T02:21:08.470Z,2.57
2018-10-04T02:23:38.589Z,3.47
2018-10-04T02:26:08.684Z,2.20
2018-10-04T02:28:38.959Z,3.33
2018-10-04T02:31:09.176Z,3.87
2018-10-04T02:33:39.280Z,3.13
2018-10-04T02:36:09.394Z,3.17
2018-10-04T02:38:39.497Z,3.10
2018-10-04T02:41:09.617Z,4.70
2018-10-04T02:43:39.723Z,3.63
2018-10-04T02:46:09.921Z,2.97
2018-10-04T02:48:40.088Z,3.13
2018-10-04T02:51:10.166Z,2.67
2018-10-04T02:53:40.253Z,3.60
2018-10-04T02:56:15.545Z,2.50
2018-10-04T02:58:45.634Z,2.43
2018-10-04T03:01:15.737Z,2.57
2018-10-04T03:03:45.804Z,2.63
2018-10-04T03:06:15.921Z,2.63
2018-10-04T03:08:46.030Z,3.17
2018-10-04T03:11:16.129Z,2.67
2018-10-04T03:13:46.314Z,2.77
2018-10-04T03:16:16.408Z,3.10
2018-10-04T03:18:46.514Z,2.97
2018-10-04T03:21:16.636Z,4.33
2018-10-04T03:23:46.732Z,2.97
2018-10-04T03:26:16.826Z,5.20
2018-10-04T03:28:46.927Z,2.87
2018-10-04T03:31:17.032Z,2.60
2018-10-04T03:33:47.135Z,2.93
2018-10-04T03:36:17.209Z,3.70
2018-10-04T03:38:47.677Z,3.67
2018-10-04T03:41:17.773Z,3.27
2018-10-04T03:43:47.889Z,3.90
2018-10-04T03:46:18.042Z,2.70
2018-10-04T03:48:48.125Z,2.70
2018-10-04T03:51:18.232Z,2.97
2018-10-04T03:53:48.400Z,3.07
2018-10-04T03:56:18.688Z,3.17
2018-10-04T03:58:48.804Z,3.23
2018-10-04T04:01:18.925Z,3.50
2018-10-04T04:03:49.042Z,3.40
2018-10-04T04:06:19.113Z,3.07
2018-10-04T04:08:49.247Z,3.77
2018-10-04T04:11:19.329Z,4.93
2018-10-04T04:13:49.426Z,4.07
2018-10-04T04:16:19.516Z,3.10
2018-10-04T04:18:49.605Z,3.40
2018-10-04T04:21:20.253Z,3.77
2018-10-04T04:23:52.583Z,4.07
2018-10-04T04:26:22.886Z,3.77
2018-10-04T04:28:53.090Z,2.67
2018-10-04T04:31:23.183Z,3.47
2018-10-04T04:33:53.429Z,2.77
2018-10-04T04:36:23.608Z,3.27
2018-10-04T04:38:53.705Z,3.90
2018-10-04T04:41:23.802Z,5.93
2018-10-04T04:43:53.894Z,4.27
2018-10-04T04:46:24.270Z,3.37
2018-10-04T04:48:54.502Z,3.67
2018-10-04T04:51:25.080Z,3.70
2018-10-04T04:53:55.351Z,3.73
2018-10-04T04:56:25.663Z,7.17
2018-10-04T04:58:55.777Z,3.97
2018-10-04T05:01:25.862Z,3.50
2018-10-04T05:03:55.954Z,3.53
2018-10-04T05:06:26.440Z,5.03
2018-10-04T05:08:56.642Z,6.17
2018-10-04T05:11:26.875Z,4.50
2018-10-04T05:13:57.000Z,5.30
2018-10-04T05:16:27.081Z,5.67
2018-10-04T05:18:57.173Z,5.03
2018-10-04T05:21:27.489Z,4.50
2018-10-04T05:23:57.597Z,4.27
2018-10-04T05:26:27.668Z,4.40
2018-10-04T05:28:57.760Z,5.23
2018-10-04T05:31:27.856Z,5.83
2018-10-04T05:33:58.028Z,9.10
2018-10-04T05:36:28.100Z,4.97
2018-10-04T05:38:58.260Z,5.87
2018-10-04T05:41:28.369Z,7.87
2018-10-04T05:43:58.459Z,8.70
2018-10-04T05:46:28.552Z,9.07
2018-10-04T05:48:58.628Z,10.00
2018-10-04T05:51:28.740Z,11.67
2018-10-04T05:53:58.833Z,6.53
2018-10-04T05:56:28.913Z,6.70
2018-10-04T05:58:59.284Z,8.43
2018-10-04T06:01:29.373Z,4.60
2018-10-04T06:03:59.761Z,5.23
2018-10-04T06:06:29.897Z,3.13
2018-10-04T06:09:00.041Z,3.23
2018-10-04T06:11:30.208Z,6.43
2018-10-04T06:14:00.480Z,6.83
2018-10-04T06:16:31.011Z,6.43
2018-10-04T06:19:01.113Z,4.77
2018-10-04T06:21:31.209Z,8.00
2018-10-04T06:24:01.780Z,6.77
2018-10-04T06:26:32.001Z,7.50
2018-10-04T06:29:02.237Z,5.77
2018-10-04T06:31:32.540Z,7.50
2018-10-04T06:34:03.098Z,5.70
2018-10-04T06:36:33.225Z,7.60
2018-10-04T06:39:05.122Z,21.93
2018-10-04T06:41:35.268Z,10.47
2018-10-04T06:44:05.537Z,19.50
2018-10-04T06:46:35.805Z,11.20
2018-10-04T06:49:06.041Z,7.43
2018-10-04T06:51:36.614Z,7.47
2018-10-04T06:54:06.922Z,6.87
2018-10-04T06:56:37.363Z,6.13
2018-10-04T06:59:07.524Z,7.07
2018-10-04T07:01:37.855Z,5.73
2018-10-04T07:04:08.265Z,4.57
2018-10-04T07:06:38.461Z,5.90
2018-10-04T07:09:10.261Z,5.87
2018-10-04T07:11:40.369Z,5.80
2018-10-04T07:14:10.496Z,3.67
2018-10-04T07:16:41.048Z,4.50
2018-10-04T07:19:11.450Z,3.30
2018-10-04T07:21:41.812Z,4.73
2018-10-04T07:24:12.153Z,3.50
2018-10-04T07:26:42.416Z,4.70
2018-10-04T07:29:12.560Z,2.70
2018-10-04T07:31:42.772Z,2.57
2018-10-04T07:34:13.069Z,2.73
2018-10-04T07:36:43.547Z,3.47
2018-10-04T07:39:27.012Z,3.37
2018-10-04T07:41:57.628Z,2.57
2018-10-04T07:44:27.665Z,3.63
2018-10-04T07:46:57.965Z,3.23
2018-10-04T07:49:28.167Z,3.77
2018-10-04T07:51:58.338Z,4.83
2018-10-04T07:54:28.510Z,3.57
2018-10-04T07:56:58.613Z,3.67
2018-10-04T07:59:28.792Z,5.40
2018-10-04T08:01:58.910Z,6.53
2018-10-04T08:04:29.156Z,5.30
2018-10-04T08:06:59.273Z,5.17
2018-10-04T08:09:29.380Z,4.40
2018-10-04T08:11:59.847Z,4.70
2018-10-04T08:14:30.013Z,5.03
2018-10-04T08:17:00.150Z,7.63
2018-10-04T08:19:30.418Z,7.13
2018-10-04T08:22:00.564Z,7.00
2018-10-04T08:24:30.709Z,5.80
2018-10-04T08:27:00.838Z,4.30
2018-10-04T08:29:30.944Z,5.33
2018-10-04T08:32:01.044Z,2.57
2018-10-04T08:34:31.329Z,2.70
2018-10-04T08:37:01.525Z,2.90
2018-10-04T08:39:31.668Z,3.37
2018-10-04T08:42:01.854Z,3.53
2018-10-04T08:44:31.890Z,3.37
2018-10-04T08:47:01.976Z,3.50
2018-10-04T08:49:32.112Z,4.13
2018-10-04T08:52:02.440Z,3.63
2018-10-04T08:54:33.628Z,3.77
2018-10-04T08:57:03.777Z,3.53
2018-10-04T08:59:34.186Z,4.40
2018-10-04T09:02:04.325Z,3.13
2018-10-04T09:04:34.408Z,4.10
2018-10-04T09:07:04.685Z,5.57
2018-10-04T09:09:34.824Z,4.47
2018-10-04T09:12:05.339Z,4.03
2018-10-04T09:14:35.691Z,5.97
2018-10-04T09:17:05.924Z,4.03
2018-10-04T09:19:36.004Z,6.57
2018-10-04T09:22:08.829Z,5.17
2018-10-04T09:24:41.164Z,6.07
2018-10-04T09:27:11.288Z,4.97
2018-10-04T09:29:46.861Z,5.70
2018-10-04T09:32:17.007Z,6.43
2018-10-04T09:34:47.111Z,6.60
2018-10-04T09:37:17.212Z,6.57
2018-10-04T09:39:47.574Z,6.87
2018-10-04T09:42:17.864Z,5.10
2018-10-04T09:44:47.954Z,6.10
2018-10-04T09:47:23.372Z,7.07
2018-10-04T09:49:53.446Z,6.07
2018-10-04T09:52:23.780Z,5.93
2018-10-04T09:54:59.168Z,6.17
2018-10-04T09:57:36.884Z,6.60
2018-10-04T10:00:15.548Z,7.07
2018-10-04T10:02:50.860Z,7.17
2018-10-04T10:05:20.989Z,8.63
2018-10-04T10:07:52.028Z,5.13
2018-10-04T10:10:22.852Z,6.43
2018-10-04T10:12:53.045Z,8.73
2018-10-04T10:15:23.143Z,5.30
2018-10-04T10:17:53.674Z,6.70
2018-10-04T10:20:23.800Z,6.10
2018-10-04T10:22:54.109Z,6.73
2018-10-04T10:25:24.342Z,4.93
2018-10-04T10:27:54.480Z,5.30
2018-10-04T10:30:24.596Z,6.60
2018-10-04T10:32:55.693Z,7.33
2018-10-04T10:35:26.104Z,6.57
2018-10-04T10:37:56.203Z,6.17
2018-10-04T10:40:26.505Z,5.77
2018-10-04T10:42:56.419Z,6.73
2018-10-04T10:45:26.544Z,6.47
2018-10-04T10:47:57.008Z,7.33
2018-10-04T10:50:27.197Z,6.10
2018-10-04T10:52:57.349Z,7.10
2018-10-04T10:55:27.568Z,6.17
2018-10-04T10:57:57.689Z,8.40
2018-10-04T11:00:27.793Z,6.00
2018-10-04T11:02:58.072Z,7.63
2018-10-04T11:05:28.877Z,8.30
2018-10-04T11:07:59.002Z,6.90
2018-10-04T11:10:29.229Z,6.93
2018-10-04T11:12:59.404Z,5.50
2018-10-04T11:15:29.545Z,5.47
2018-10-04T11:17:59.779Z,6.20
2018-10-04T11:20:29.698Z,5.27
2018-10-04T11:22:59.803Z,5.73
2018-10-04T11:25:29.921Z,6.27
2018-10-04T11:27:59.996Z,6.17
2018-10-04T11:30:30.068Z,6.40
2018-10-04T11:33:00.183Z,7.30
2018-10-04T11:35:30.460Z,6.70
2018-10-04T11:38:00.861Z,7.13
2018-10-04T11:40:31.015Z,7.00
2018-10-04T11:43:01.251Z,6.60
2018-10-04T11:45:34.496Z,5.80
2018-10-04T11:48:04.648Z,7.53
2018-10-04T11:50:34.772Z,7.07
2018-10-04T11:53:04.908Z,6.63
2018-10-04T11:55:34.987Z,6.63
2018-10-04T11:58:05.142Z,6.40
2018-10-04T12:00:35.300Z,5.53
2018-10-04T12:03:05.432Z,6.33
2018-10-04T12:05:35.555Z,9.33
2018-10-04T12:08:05.656Z,8.03
2018-10-04T12:10:35.892Z,7.17
2018-10-04T12:13:06.027Z,7.00
2018-10-04T12:15:36.106Z,6.27
2018-10-04T12:18:06.328Z,8.13
2018-10-04T12:20:36.422Z,7.07
2018-10-04T12:23:06.596Z,6.17
2018-10-04T12:25:36.684Z,10.10
2018-10-04T12:28:07.110Z,8.47
2018-10-04T12:30:37.317Z,6.83
2018-10-04T12:33:07.532Z,7.50
2018-10-04T12:35:37.645Z,12.20
2018-10-04T12:38:07.829Z,5.97
2018-10-04T12:40:38.073Z,6.67
2018-10-04T12:43:08.191Z,6.90
2018-10-04T12:45:38.284Z,7.63
2018-10-04T12:48:08.401Z,6.67
2018-10-04T12:50:38.578Z,4.00
2018-10-04T12:53:08.712Z,7.50
2018-10-04T12:55:38.796Z,5.97
2018-10-04T12:58:08.969Z,5.93
2018-10-04T13:00:39.483Z,9.57
2018-10-04T13:03:09.567Z,7.03
2018-10-04T13:05:39.747Z,7.17
2018-10-04T13:08:09.979Z,7.87
2018-10-04T13:10:40.174Z,8.33
2018-10-04T13:13:10.332Z,7.80
2018-10-04T13:15:40.504Z,7.17
2018-10-04T13:18:10.721Z,7.60
2018-10-04T13:20:41.140Z,7.73
2018-10-04T13:23:11.449Z,6.73
2018-10-04T13:25:41.774Z,7.73
2018-10-04T13:30:42.441Z,6.23
2018-10-04T13:33:16.660Z,7.43
2018-10-04T13:35:51.796Z,7.50
2018-10-04T13:38:23.670Z,7.80
2018-10-04T13:40:54.416Z,5.63
2018-10-04T13:43:24.671Z,7.90
2018-10-04T13:45:58.083Z,9.47
2018-10-04T13:48:29.972Z,7.13
2018-10-04T13:51:03.101Z,8.60
2018-10-04T13:53:34.364Z,7.63
2018-10-04T13:56:04.685Z,7.23
2018-10-04T13:58:37.993Z,8.00
2018-10-04T14:01:08.330Z,7.47
2018-10-04T14:03:45.153Z,7.00
2018-10-04T14:06:15.642Z,7.60
2018-10-04T14:08:46.277Z,7.73
2018-10-04T14:11:17.797Z,7.30
2018-10-04T14:13:48.812Z,7.57
2018-10-04T14:16:19.523Z,7.30
2018-10-04T14:18:50.000Z,8.77
2018-10-04T14:21:20.358Z,8.07
2018-10-04T14:23:51.645Z,8.33
2018-10-04T14:26:21.993Z,7.77
2018-10-04T14:28:52.213Z,7.73
2018-10-04T14:31:22.602Z,9.33
2018-10-04T14:33:52.973Z,7.20
2018-10-04T14:36:23.426Z,6.73
2018-10-04T14:38:53.815Z,6.63
2018-10-04T14:41:24.236Z,7.50
2018-10-04T14:43:54.785Z,6.13
2018-10-04T14:46:25.155Z,6.37
2018-10-04T14:48:55.411Z,6.33
2018-10-04T14:51:25.818Z,7.73
2018-10-04T14:53:56.167Z,5.47
2018-10-04T14:56:26.618Z,5.30
2018-10-04T14:58:56.893Z,6.03
2018-10-04T15:01:27.199Z,7.70
2018-10-04T15:03:57.642Z,5.47
2018-10-04T15:06:33.543Z,7.43
2018-10-04T15:09:05.572Z,8.03
2018-10-04T15:11:36.095Z,7.53
2018-10-04T15:14:06.393Z,7.40
2018-10-04T15:16:36.901Z,7.67
2018-10-04T15:19:07.229Z,7.47
2018-10-04T15:21:37.666Z,6.40
2018-10-04T15:24:08.142Z,6.80
2018-10-04T15:26:38.562Z,8.50
2018-10-04T15:29:08.934Z,6.57
2018-10-04T15:31:39.418Z,6.57
2018-10-04T15:34:09.806Z,7.63
2018-10-04T15:36:40.302Z,10.33
2018-10-04T15:39:11.674Z,7.57
2018-10-04T15:41:42.097Z,7.00
2018-10-04T15:44:12.634Z,11.87
2018-10-04T15:46:43.010Z,26.47
2018-10-04T15:49:13.516Z,16.63
2018-10-04T15:51:43.782Z,56.30
2018-10-04T15:54:14.277Z,37.33
2018-10-04T15:56:44.597Z,25.47
2018-10-04T15:59:15.654Z,27.70
2018-10-04T16:01:46.049Z,26.07
2018-10-04T16:04:19.288Z,39.07
2018-10-04T16:06:50.144Z,18.47
2018-10-04T16:09:20.606Z,26.27
2018-10-04T16:11:51.387Z,20.80
2018-10-04T16:14:22.961Z,18.53
2018-10-04T16:16:54.253Z,18.80
2018-10-04T16:19:25.165Z,20.40
2018-10-04T16:22:02.031Z,20.13
2018-10-04T16:24:32.263Z,19.17
2018-10-04T16:27:06.632Z,14.33
2018-10-04T16:29:36.877Z,17.73
2018-10-04T16:32:10.399Z,15.50
2018-10-04T16:34:40.581Z,11.70
2018-10-04T16:37:10.728Z,14.77
2018-10-04T16:39:40.856Z,14.60
2018-10-04T16:42:10.984Z,22.70
2018-10-04T16:44:41.360Z,16.57
2018-10-04T16:47:11.720Z,17.40
2018-10-04T16:49:41.861Z,15.93
2018-10-04T16:52:12.397Z,21.13
2018-10-04T16:54:42.836Z,22.60
2018-10-04T16:57:13.035Z,21.63
2018-10-04T16:59:43.266Z,15.47
2018-10-04T17:02:13.445Z,13.50
2018-10-04T17:04:45.684Z,11.67
2018-10-04T17:07:15.876Z,14.77
2018-10-04T17:09:48.328Z,13.60
2018-10-04T17:12:21.112Z,13.17
2018-10-04T17:14:54.567Z,11.13
2018-10-04T17:17:28.116Z,10.50
2018-10-04T17:20:00.602Z,13.77
2018-10-04T17:22:30.951Z,15.90
2018-10-04T17:25:01.106Z,16.47
2018-10-04T17:27:31.597Z,26.20
2018-10-04T17:30:01.762Z,15.83
2018-10-04T17:32:31.977Z,12.93
2018-10-04T17:35:02.129Z,13.03
2018-10-04T17:37:32.262Z,13.03
2018-10-04T17:40:02.434Z,11.47
2018-10-04T17:42:33.172Z,11.97
2018-10-04T17:45:03.360Z,11.47
2018-10-04T17:47:33.897Z,12.63
2018-10-04T17:50:04.284Z,10.57
2018-10-04T17:52:34.668Z,10.33
2018-10-04T17:55:06.969Z,25.80
2018-10-04T17:57:39.795Z,20.83
2018-10-04T18:00:13.832Z,20.83
2018-10-04T18:02:46.109Z,16.17
2018-10-04T18:05:17.855Z,12.97
2018-10-04T18:07:49.841Z,11.47
2018-10-04T18:10:22.092Z,21.10
2018-10-04T18:12:53.624Z,91.93
2018-10-04T18:15:24.141Z,65.00
2018-10-04T18:17:54.364Z,18.90
2018-10-04T18:20:24.567Z,14.67
2018-10-04T18:22:54.882Z,12.37
2018-10-04T18:25:26.897Z,12.40
2018-10-04T18:27:57.319Z,10.33
2018-10-04T18:30:28.301Z,11.60
2018-10-04T18:32:59.027Z,9.03
2018-10-04T18:35:29.104Z,11.70
2018-10-04T18:37:59.881Z,11.07
2018-10-04T18:40:33.722Z,24.67
2018-10-04T18:43:04.029Z,37.60
2018-10-04T18:45:34.581Z,16.83
2018-10-04T18:48:04.812Z,11.23
2018-10-04T18:50:35.553Z,14.13
2018-10-04T18:53:06.070Z,12.73
2018-10-04T18:55:37.017Z,10.83
2018-10-04T18:58:07.469Z,10.73
2018-10-04T19:00:38.840Z,13.50
2018-10-04T19:03:09.491Z,11.80
2018-10-04T19:05:39.883Z,12.63
2018-10-04T19:08:09.980Z,10.90
2018-10-04T19:10:42.101Z,14.50
2018-10-04T19:13:12.481Z,15.07
2018-10-04T19:15:42.813Z,13.47
2018-10-04T19:18:13.230Z,15.20
2018-10-04T19:20:44.044Z,13.57
2018-10-04T19:23:15.780Z,17.90
2018-10-04T19:25:45.876Z,15.67
2018-10-04T19:28:16.032Z,17.40
2018-10-04T19:30:46.152Z,20.10
2018-10-04T19:33:16.496Z,22.30
2018-10-04T19:35:46.811Z,18.23
2018-10-04T19:38:16.945Z,19.43
2018-10-04T19:40:47.466Z,18.70
2018-10-04T19:43:17.655Z,17.30
2018-10-04T19:45:48.396Z,21.57
2018-10-04T19:48:18.512Z,17.33
2018-10-04T19:50:49.469Z,18.87
2018-10-04T19:53:20.473Z,16.43
2018-10-04T19:55:51.530Z,19.73
2018-10-04T19:58:21.676Z,19.77
2018-10-04T20:00:51.821Z,18.97
2018-10-04T20:03:22.045Z,18.63
2018-10-04T20:05:52.565Z,14.27
2018-10-04T20:08:23.216Z,16.83
2018-10-04T20:10:54.017Z,14.33
2018-10-04T20:13:24.774Z,18.07
2018-10-04T20:15:54.950Z,31.27
2018-10-04T20:18:25.324Z,42.10
2018-10-04T20:20:55.748Z,35.73
2018-10-04T20:23:26.001Z,19.27
2018-10-04T20:25:57.157Z,21.23
2018-10-04T20:28:27.283Z,21.97
2018-10-04T20:30:57.788Z,26.27
2018-10-04T20:33:27.906Z,19.10
2018-10-04T20:35:58.096Z,17.17
2018-10-04T20:38:28.217Z,17.77
2018-10-04T20:40:58.901Z,17.73
2018-10-04T20:43:29.620Z,20.77
2018-10-04T20:45:59.742Z,19.47
2018-10-04T20:48:29.958Z,22.33
2018-10-04T20:51:00.360Z,16.90
2018-10-04T20:53:30.520Z,17.43
2018-10-04T20:56:00.828Z,17.40
2018-10-04T20:58:30.956Z,19.17
2018-10-04T21:01:01.679Z,17.47
2018-10-04T21:03:32.406Z,14.43
2018-10-04T21:06:02.759Z,17.87
2018-10-04T21:08:32.876Z,18.33
2018-10-04T21:11:03.081Z,18.10
2018-10-04T21:13:33.440Z,19.17
2018-10-04T21:16:03.687Z,20.73
2018-10-04T21:18:33.841Z,19.63
2018-10-04T21:21:03.945Z,17.20
2018-10-04T21:23:34.569Z,19.33
2018-10-04T21:26:04.836Z,21.00
2018-10-04T21:28:34.933Z,21.70
2018-10-04T21:31:06.054Z,23.30
2018-10-04T21:33:36.473Z,20.50
2018-10-04T21:36:06.905Z,21.80
2018-10-04T21:38:37.623Z,22.60
2018-10-04T21:41:08.293Z,23.77
2018-10-04T21:43:38.948Z,26.90
2018-10-04T21:46:09.055Z,24.57
2018-10-04T21:48:39.193Z,23.00
2018-10-04T21:51:09.402Z,55.73
2018-10-04T21:53:39.553Z,28.83
2018-10-04T21:56:09.677Z,20.17
2018-10-04T21:58:39.780Z,20.37
2018-10-04T22:01:10.014Z,20.27
2018-10-04T22:03:40.123Z,31.27
2018-10-04T22:06:10.325Z,37.80
2018-10-04T22:08:40.548Z,41.10
2018-10-04T22:11:10.708Z,74.03
2018-10-04T22:13:41.096Z,40.10
2018-10-04T22:16:11.236Z,20.63
2018-10-04T22:18:41.434Z,17.50
2018-10-04T22:21:11.555Z,20.33
2018-10-04T22:23:41.696Z,20.93
2018-10-04T22:26:11.874Z,21.63
2018-10-04T22:28:41.996Z,22.20
2018-10-04T22:31:12.121Z,28.67
2018-10-04T22:33:42.261Z,24.97
2018-10-04T22:36:12.614Z,20.07
2018-10-04T22:38:42.734Z,24.30
2018-10-04T22:41:12.935Z,17.23
2018-10-04T22:43:43.102Z,18.87
2018-10-04T22:46:13.275Z,17.83
2018-10-04T22:48:43.433Z,18.77
2018-10-04T22:51:13.636Z,17.77
2018-10-04T22:53:43.818Z,19.47
2018-10-04T22:56:14.004Z,15.57
2018-10-04T22:58:44.165Z,17.57
2018-10-04T23:01:14.337Z,17.83
2018-10-04T23:03:51.293Z,14.73
2018-10-04T23:06:21.457Z,15.20
2018-10-04T23:08:51.638Z,12.50
2018-10-04T23:11:21.768Z,14.27
2018-10-04T23:13:51.992Z,15.07
2018-10-04T23:16:22.194Z,15.27
2018-10-04T23:18:52.361Z,13.97
2018-10-04T23:21:22.517Z,15.57
2018-10-04T23:23:52.646Z,17.53
2018-10-04T23:26:22.832Z,17.20
2018-10-04T23:28:52.969Z,17.20
2018-10-04T23:31:23.217Z,17.03
2018-10-04T23:33:53.399Z,13.77
2018-10-04T23:36:23.537Z,14.17
2018-10-04T23:38:53.683Z,18.50
2018-10-04T23:41:23.878Z,14.20
2018-10-04T23:43:54.039Z,15.23
2018-10-04T23:46:24.241Z,15.13
2018-10-04T23:48:54.401Z,13.87
2018-10-04T23:51:24.558Z,15.57
2018-10-04T23:53:54.783Z,14.10
2018-10-04T23:56:24.993Z,12.33
2018-10-04T23:58:55.192Z,14.60
